Time;durP1;ratioP1;P1;durP2;ratioP2;P2;SDS_P1;SDS_P2;PMS_P1;PMS_P2;Temp;Humidity;BMP_temperature;BMP_pressure;BME280_temperature;BME280_humidity;BME280_pressure;Samples;Min_cycle;Max_cycle;Signal;HPM_P1;HPM_P2
2023/05/30 00:01:13;;;;;;;7.68;1.88;;;;;;;13.73;46.92;101784.75;4978748;28;20031;-65
2023/05/30 00:03:39;;;;;;;9.70;2.35;;;;;;;13.72;45.64;101770.00;4979779;28;20072;-66
2023/05/30 00:06:05;;;;;;;11.88;2.30;;;;;;;13.68;46.11;101772.66;4982709;28;20048;-66
2023/05/30 00:08:31;;;;;;;6.13;2.20;;;;;;;13.61;46.55;101782.19;4980477;28;20035;-66
2023/05/30 00:10:56;;;;;;;7.22;2.28;;;;;;;13.54;47.05;101786.56;4980192;28;20056;-67
2023/05/30 00:13:22;;;;;;;8.52;2.45;;;;;;;13.54;47.08;101788.28;4977875;28;20189;-72
2023/05/30 00:15:48;;;;;;;9.70;2.13;;;;;;;13.49;47.45;101792.63;4977928;28;20034;-73
2023/05/30 00:18:13;;;;;;;8.98;3.13;;;;;;;13.41;47.86;101797.88;4980734;28;20066;-72
2023/05/30 00:20:39;;;;;;;13.00;2.45;;;;;;;13.37;47.59;101793.56;4975843;28;20499;-71
2023/05/30 00:23:05;;;;;;;6.28;1.90;;;;;;;13.37;47.64;101783.16;4975568;28;20152;-72
2023/05/30 00:25:32;;;;;;;6.88;2.17;;;;;;;13.35;48.07;101797.03;4976653;28;20092;-71
2023/05/30 00:27:58;;;;;;;10.20;2.42;;;;;;;13.29;48.17;101799.66;4976498;28;20501;-72
2023/05/30 00:30:23;;;;;;;9.20;2.00;;;;;;;13.19;48.47;101795.31;4979290;28;20029;-73
2023/05/30 00:32:49;;;;;;;9.32;2.10;;;;;;;13.14;48.38;101807.47;4978788;28;20031;-72
2023/05/30 00:35:14;;;;;;;6.47;1.92;;;;;;;13.05;48.82;101818.75;4979272;28;20038;-72
2023/05/30 00:37:40;;;;;;;9.02;2.15;;;;;;;12.94;49.67;101829.09;4977000;28;20057;-74
2023/05/30 00:40:06;;;;;;;6.80;1.70;;;;;;;12.82;50.39;101842.06;4971829;28;20063;-72
2023/05/30 00:42:32;;;;;;;10.95;2.60;;;;;;;12.64;50.80;101854.19;4983094;28;20033;-72
2023/05/30 00:44:57;;;;;;;11.45;2.38;;;;;;;12.51;51.24;101849.84;4978353;28;20604;-70
2023/05/30 00:47:23;;;;;;;9.23;2.33;;;;;;;12.39;50.96;101848.97;5019502;28;20041;-71
2023/05/30 00:49:49;;;;;;;9.13;2.30;;;;;;;12.32;50.20;101841.16;4986582;28;20141;-72
2023/05/30 00:52:15;;;;;;;7.25;2.17;;;;;;;12.26;50.25;101848.94;4986030;28;20374;-72
2023/05/30 00:54:44;;;;;;;7.93;1.90;;;;;;;12.18;49.62;101848.94;4977924;28;20058;-73
2023/05/30 00:57:10;;;;;;;7.50;1.80;;;;;;;12.11;49.94;101847.19;4977782;28;20038;-73
2023/05/30 00:59:36;;;;;;;6.90;1.88;;;;;;;12.05;50.83;101862.69;4973453;28;20042;-73
2023/05/30 01:02:02;;;;;;;6.35;1.98;;;;;;;11.99;51.35;101865.28;4976836;28;20030;-73
2023/05/30 01:04:28;;;;;;;8.82;2.30;;;;;;;11.94;50.77;101863.53;4978539;28;20459;-73
2023/05/30 01:06:53;;;;;;;13.15;2.50;;;;;;;11.94;49.91;101863.53;4975831;28;20117;-73
2023/05/30 01:09:19;;;;;;;9.68;2.63;;;;;;;11.94;50.11;101850.56;4969999;28;20470;-72
2023/05/30 01:12:12;;;;;;;7.40;2.10;;;;;;;11.94;49.63;101843.69;4978842;28;20037;-72
2023/05/30 01:14:43;;;;;;;7.30;1.63;;;;;;;11.94;48.76;101835.03;4978694;28;20093;-73
2023/05/30 01:17:38;;;;;;;11.82;2.20;;;;;;;12.01;48.67;101834.19;5005929;28;20041;-73
2023/05/30 01:20:11;;;;;;;9.63;2.00;;;;;;;12.01;48.05;101823.84;4990003;28;20082;-73
2023/05/30 01:22:54;;;;;;;6.45;2.08;;;;;;;12.02;48.56;101835.94;4977045;28;20050;-72
2023/05/30 01:25:35;;;;;;;5.93;1.80;;;;;;;12.00;47.96;101828.16;4982281;28;20046;-73
2023/05/30 01:28:13;;;;;;;10.00;2.53;;;;;;;11.99;48.06;101839.38;4973935;28;20031;-72
2023/05/30 01:30:46;;;;;;;6.45;1.60;;;;;;;11.95;48.53;101836.78;4973475;28;20119;-72
2023/05/30 01:33:13;;;;;;;5.40;1.50;;;;;;;11.95;49.10;101839.38;4975865;28;20026;-72
2023/05/30 01:35:41;;;;;;;8.05;1.88;;;;;;;11.97;48.21;101827.25;4977872;28;20038;-73
2023/05/30 01:38:07;;;;;;;8.73;2.35;;;;;;;12.06;47.29;101820.38;4978247;28;20058;-72
2023/05/30 01:40:33;;;;;;;8.43;2.22;;;;;;;12.11;47.24;101817.81;4974691;28;20120;-73
2023/05/30 01:43:05;;;;;;;8.82;1.70;;;;;;;12.04;48.09;101827.31;4978028;28;20080;-73
2023/05/30 01:45:43;;;;;;;9.15;2.20;;;;;;;11.99;47.95;101823.81;4969152;28;20841;-73
2023/05/30 01:48:39;;;;;;;6.15;2.40;;;;;;;11.98;47.92;101822.09;4980093;28;20038;-73
2023/05/30 01:51:10;;;;;;;8.50;2.40;;;;;;;11.96;48.23;101826.41;4962407;28;20038;-73
2023/05/30 01:53:41;;;;;;;5.82;1.92;;;;;;;11.92;48.24;101823.81;4971452;28;20057;-72
2023/05/30 01:56:09;;;;;;;8.32;1.95;;;;;;;11.85;48.10;101839.34;4975801;28;20039;-74
2023/05/30 01:58:36;;;;;;;6.18;1.77;;;;;;;11.79;48.60;101839.31;4977265;28;20038;-73
2023/05/30 02:01:04;;;;;;;4.80;2.03;;;;;;;11.84;48.13;101837.59;4977534;28;20066;-72
2023/05/30 02:03:30;;;;;;;8.02;2.20;;;;;;;11.82;48.75;101848.81;4983946;28;20045;-74
2023/05/30 02:05:55;;;;;;;7.38;1.73;;;;;;;11.79;48.74;101859.16;4981207;28;20045;-73
2023/05/30 02:08:21;;;;;;;10.48;2.50;;;;;;;11.82;48.29;101846.22;4978908;28;20044;-74
2023/05/30 02:10:47;;;;;;;8.02;1.95;;;;;;;11.77;49.11;101861.75;4986080;28;20185;-73
2023/05/30 02:13:12;;;;;;;7.95;2.10;;;;;;;11.77;48.90;101856.59;4991399;28;20058;-73
2023/05/30 02:15:37;;;;;;;6.15;1.65;;;;;;;11.80;48.62;101853.13;5039689;28;20041;-72
2023/05/30 02:18:06;;;;;;;8.05;1.73;;;;;;;11.73;48.87;101860.00;5006989;28;20049;-73
2023/05/30 02:20:31;;;;;;;6.80;2.22;;;;;;;11.70;49.77;101864.31;5002679;28;20043;-72
2023/05/30 02:22:57;;;;;;;10.45;2.10;;;;;;;11.70;49.41;101870.34;4996017;28;20049;-72
2023/05/30 02:25:23;;;;;;;6.78;2.10;;;;;;;11.66;50.40;101878.13;4981731;28;20043;-73
2023/05/30 02:27:50;;;;;;;8.43;2.08;;;;;;;11.58;50.31;101878.06;4987335;28;20038;-73
2023/05/30 02:30:16;;;;;;;9.50;1.70;;;;;;;11.59;50.73;101887.56;4979147;28;20104;-73
2023/05/30 02:32:41;;;;;;;9.10;1.88;;;;;;;11.50;50.73;101892.69;4981653;28;20038;-74
2023/05/30 02:35:07;;;;;;;6.00;2.20;;;;;;;11.49;51.32;101892.66;4987129;28;20046;-73
2023/05/30 02:37:32;;;;;;;7.88;2.00;;;;;;;11.44;51.45;101894.38;4983716;28;20136;-73
2023/05/30 02:39:58;;;;;;;7.25;1.75;;;;;;;11.35;51.83;101900.34;4981687;28;20080;-73
2023/05/30 02:42:23;;;;;;;6.57;1.80;;;;;;;11.30;52.11;101910.66;4982084;28;20060;-75
2023/05/30 02:44:48;;;;;;;7.90;2.90;;;;;;;11.29;52.61;101918.41;4982041;28;20065;-72
2023/05/30 02:47:14;;;;;;;11.98;2.40;;;;;;;11.27;52.39;101914.94;4985224;28;20034;-73
2023/05/30 02:49:39;;;;;;;8.32;2.00;;;;;;;11.22;52.85;101909.72;4982114;28;20042;-74
2023/05/30 02:52:05;;;;;;;7.68;2.13;;;;;;;11.16;53.04;101924.34;4983321;28;20080;-73
2023/05/30 02:54:31;;;;;;;10.15;2.17;;;;;;;11.18;53.53;101925.22;4981334;28;20030;-73
2023/05/30 02:56:57;;;;;;;7.18;1.90;;;;;;;11.09;53.48;101926.03;4979999;28;20074;-74
2023/05/30 02:59:22;;;;;;;6.93;1.88;;;;;;;11.04;53.74;101925.09;4980476;28;20203;-73
2023/05/30 03:01:48;;;;;;;6.55;2.20;;;;;;;11.01;53.84;101940.59;4978817;28;20455;-73
2023/05/30 03:04:14;;;;;;;7.68;1.80;;;;;;;11.00;54.13;101931.13;4980371;28;20035;-73
2023/05/30 03:06:40;;;;;;;9.18;2.33;;;;;;;10.94;54.50;101936.25;4979803;28;20081;-74
2023/05/30 03:09:06;;;;;;;7.07;2.03;;;;;;;10.90;55.13;101941.38;4978030;28;20043;-74
2023/05/30 03:11:31;;;;;;;6.82;1.85;;;;;;;10.89;55.68;101950.84;4976653;28;20092;-73
2023/05/30 03:13:56;;;;;;;15.35;2.47;;;;;;;10.87;55.40;101949.09;4979530;28;20038;-73
2023/05/30 03:16:22;;;;;;;6.35;1.83;;;;;;;10.89;55.66;101955.19;4981706;28;20039;-74
2023/05/30 03:18:49;;;;;;;7.20;2.13;;;;;;;10.83;56.18;101955.13;4984364;28;20038;-74
2023/05/30 03:21:15;;;;;;;7.25;2.25;;;;;;;10.78;56.64;101965.41;4974636;28;20730;-74
2023/05/30 03:23:40;;;;;;;11.13;2.17;;;;;;;10.71;56.60;101966.22;4982031;28;20144;-73
2023/05/30 03:26:06;;;;;;;6.25;2.20;;;;;;;10.69;56.99;101961.00;4984214;28;20042;-73
2023/05/30 03:28:32;;;;;;;6.38;2.50;;;;;;;10.64;56.67;101960.09;4980982;28;20041;-74
2023/05/30 03:30:58;;;;;;;7.53;1.70;;;;;;;10.62;57.49;101964.38;4980653;28;20726;-74
2023/05/30 03:33:23;;;;;;;6.95;2.10;;;;;;;10.64;57.99;101972.16;4981643;28;20084;-74
2023/05/30 03:35:49;;;;;;;8.52;2.20;;;;;;;10.63;57.80;101968.69;4985734;28;20038;-74
2023/05/30 03:38:14;;;;;;;8.40;1.50;;;;;;;10.64;57.91;101977.31;4977949;28;20073;-74
2023/05/30 03:40:40;;;;;;;10.25;2.47;;;;;;;10.64;58.69;101977.31;4980278;28;21038;-74
2023/05/30 03:43:05;;;;;;;9.45;2.20;;;;;;;10.65;58.41;101968.72;5017556;28;20245;-74
2023/05/30 03:45:31;;;;;;;8.65;2.22;;;;;;;10.67;58.60;101974.78;4985330;28;20061;-74
2023/05/30 03:47:57;;;;;;;5.88;2.03;;;;;;;10.67;59.01;101980.81;4982636;28;20817;-74
2023/05/30 03:50:23;;;;;;;8.90;2.20;;;;;;;10.70;57.73;101985.16;4977750;28;20064;-73
2023/05/30 03:52:48;;;;;;;11.07;2.38;;;;;;;10.72;57.96;101983.44;4978683;28;20046;-73
2023/05/30 03:55:13;;;;;;;9.20;2.58;;;;;;;10.75;58.50;101986.94;4983519;28;20037;-74
2023/05/30 03:57:39;;;;;;;9.27;2.35;;;;;;;10.79;58.96;101996.47;4983413;28;20037;-74
2023/05/30 04:00:05;;;;;;;8.55;2.25;;;;;;;10.83;58.90;101993.91;4981711;28;20080;-74
2023/05/30 04:02:30;;;;;;;7.55;2.15;;;;;;;10.86;58.63;101997.38;4978200;28;20034;-74
2023/05/30 04:04:55;;;;;;;12.60;2.78;;;;;;;10.89;58.82;101999.16;4977460;28;20739;-74
2023/05/30 04:07:21;;;;;;;12.85;2.85;;;;;;;10.91;59.37;102003.47;4974315;28;20523;-74
2023/05/30 04:09:46;;;;;;;10.35;2.40;;;;;;;10.92;60.03;102004.34;4979785;28;20074;-74
2023/05/30 04:12:12;;;;;;;7.03;2.33;;;;;;;10.94;60.01;102005.22;4976411;28;20516;-74
2023/05/30 04:14:37;;;;;;;9.43;2.30;;;;;;;10.93;59.49;102009.53;4972347;28;20563;-74
2023/05/30 04:17:03;;;;;;;10.85;2.55;;;;;;;10.97;60.62;102013.88;4977448;28;20108;-67
2023/05/30 04:19:29;;;;;;;12.27;2.63;;;;;;;10.98;59.62;102019.94;4973851;28;20062;-67
2023/05/30 04:21:54;;;;;;;8.55;2.22;;;;;;;11.02;60.28;102016.50;4974235;28;20121;-74
2023/05/30 04:24:21;;;;;;;9.45;2.85;;;;;;;11.04;59.90;102012.22;4980158;28;20607;-74
2023/05/30 04:26:48;;;;;;;10.73;2.38;;;;;;;11.07;60.50;102017.44;4980470;28;20046;-74
2023/05/30 04:29:14;;;;;;;8.63;2.72;;;;;;;11.07;60.45;102017.44;4970719;28;20504;-74
2023/05/30 04:31:39;;;;;;;11.38;2.72;;;;;;;11.11;60.50;102021.78;4977075;28;20033;-73
2023/05/30 04:34:05;;;;;;;8.50;2.50;;;;;;;11.14;60.21;102022.66;4980261;28;20026;-74
2023/05/30 04:36:32;;;;;;;8.43;2.47;;;;;;;11.18;60.82;102029.63;4981443;28;20030;-74
2023/05/30 04:38:58;;;;;;;8.52;2.53;;;;;;;11.17;61.08;102024.41;4980114;28;20573;-74
2023/05/30 04:41:24;;;;;;;9.77;2.10;;;;;;;11.21;60.49;102024.47;5007386;28;20034;-74
2023/05/30 04:44:00;;;;;;;7.88;2.38;;;;;;;11.28;60.82;102013.31;4978642;28;20046;-74
2023/05/30 04:46:27;;;;;;;7.07;2.38;;;;;;;11.30;61.18;102016.78;4973141;28;20046;-73
2023/05/30 04:48:55;;;;;;;9.77;3.00;;;;;;;11.35;61.22;102014.22;4976331;28;20035;-75
2023/05/30 04:51:24;;;;;;;10.20;2.45;;;;;;;11.42;61.09;102017.75;4953358;28;20153;-74
2023/05/30 04:53:50;;;;;;;9.02;2.65;;;;;;;11.50;61.16;102018.69;4955027;28;20039;-74
2023/05/30 04:56:16;;;;;;;13.23;2.78;;;;;;;11.51;61.50;102010.09;4957707;28;20049;-73
2023/05/30 04:58:44;;;;;;;12.65;3.15;;;;;;;11.54;61.69;102020.47;4954792;28;20034;-73
2023/05/30 05:01:10;;;;;;;15.88;2.47;;;;;;;11.56;61.42;102027.38;4957659;28;20034;-74
2023/05/30 05:03:38;;;;;;;11.30;2.95;;;;;;;11.55;61.31;102023.03;4956569;28;20050;-73
2023/05/30 05:06:06;;;;;;;8.57;2.60;;;;;;;11.46;61.64;102035.03;4982952;28;20035;-73
2023/05/30 05:08:33;;;;;;;10.68;2.78;;;;;;;11.47;61.96;102035.06;4958415;28;20046;-73
2023/05/30 05:11:00;;;;;;;10.80;2.75;;;;;;;11.54;61.58;102030.81;4991066;28;20046;-73
2023/05/30 05:13:25;;;;;;;10.57;2.78;;;;;;;11.56;61.18;102023.91;4958674;28;20038;-72
2023/05/30 05:15:51;;;;;;;13.15;2.90;;;;;;;11.63;62.05;102031.75;4959721;28;20049;-73
2023/05/30 05:18:16;;;;;;;12.88;2.95;;;;;;;11.73;62.04;102030.09;4955244;28;20042;-74
2023/05/30 05:20:41;;;;;;;11.75;3.45;;;;;;;11.72;61.76;102025.78;4951624;28;20051;-74
2023/05/30 05:23:07;;;;;;;12.73;2.90;;;;;;;11.64;62.11;102030.88;4956481;28;20038;-73
2023/05/30 05:25:32;;;;;;;11.32;2.90;;;;;;;11.69;61.97;102033.53;4962391;28;20047;-71
2023/05/30 05:27:57;;;;;;;11.45;2.50;;;;;;;11.70;62.30;102037.84;4948087;28;21016;-73
2023/05/30 05:30:23;;;;;;;10.95;2.80;;;;;;;11.79;62.33;102041.34;4955882;28;20050;-73
2023/05/30 05:32:48;;;;;;;9.75;2.60;;;;;;;11.88;62.88;102040.56;4964887;28;20039;-73
2023/05/30 05:35:14;;;;;;;7.95;2.72;;;;;;;11.90;62.78;102041.41;4963337;28;20059;-70
2023/05/30 05:37:39;;;;;;;13.88;3.70;;;;;;;11.94;62.59;102043.19;4960635;28;20043;-73
2023/05/30 05:40:05;;;;;;;10.77;3.17;;;;;;;11.96;62.18;102044.06;4965075;28;20041;-74
2023/05/30 05:42:32;;;;;;;12.40;3.53;;;;;;;12.02;62.83;102046.69;4964956;28;20081;-75
2023/05/30 05:44:57;;;;;;;13.77;3.05;;;;;;;12.06;62.57;102035.47;4958064;28;20066;-74
2023/05/30 05:47:23;;;;;;;12.65;3.20;;;;;;;12.10;62.89;102047.63;4961907;28;20540;-74
2023/05/30 05:49:48;;;;;;;8.45;3.20;;;;;;;12.09;63.19;102045.88;4962966;28;20125;-74
2023/05/30 05:52:13;;;;;;;17.95;4.45;;;;;;;12.11;62.43;102041.56;4961785;28;20026;-75
2023/05/30 05:54:39;;;;;;;15.02;3.70;;;;;;;12.10;62.67;102039.84;4962124;28;20035;-73
2023/05/30 05:57:06;;;;;;;16.23;3.20;;;;;;;12.04;62.91;102051.88;4965949;28;20158;-73
2023/05/30 05:59:31;;;;;;;15.40;3.60;;;;;;;12.03;63.00;102051.03;4962373;28;20045;-74
2023/05/30 06:01:56;;;;;;;11.98;3.50;;;;;;;12.04;63.38;102060.53;4958773;28;20031;-67
2023/05/30 06:04:22;;;;;;;9.05;3.20;;;;;;;12.08;63.08;102062.28;4964146;28;20126;-66
2023/05/30 06:06:47;;;;;;;17.67;3.33;;;;;;;12.17;63.44;102056.28;4959505;28;20595;-66
2023/05/30 06:09:13;;;;;;;17.00;4.03;;;;;;;12.22;63.19;102059.78;4957999;28;20465;-65
2023/05/30 06:11:39;;;;;;;12.80;3.88;;;;;;;12.21;62.82;102061.50;4944263;28;20038;-65
2023/05/30 06:14:04;;;;;;;12.77;3.22;;;;;;;12.18;63.52;102064.06;4953574;28;20043;-65
2023/05/30 06:16:30;;;;;;;16.85;3.38;;;;;;;12.25;63.40;102059.78;4952933;28;20057;-65
2023/05/30 06:18:55;;;;;;;16.98;3.80;;;;;;;12.37;63.75;102060.72;4958775;28;20031;-66
2023/05/30 06:21:21;;;;;;;13.23;3.67;;;;;;;12.48;63.34;102046.94;4957813;28;20121;-65
2023/05/30 06:23:46;;;;;;;17.40;3.70;;;;;;;12.52;63.15;102046.97;4962010;28;20051;-65
2023/05/30 06:26:11;;;;;;;14.30;3.17;;;;;;;12.60;62.52;102036.59;4971047;28;20047;-65
2023/05/30 06:28:37;;;;;;;13.98;3.60;;;;;;;12.61;62.32;102039.22;4965702;28;20125;-65
2023/05/30 06:31:02;;;;;;;11.80;3.10;;;;;;;12.61;62.10;102031.44;4964889;28;20042;-66
2023/05/30 06:33:28;;;;;;;13.05;4.22;;;;;;;12.58;62.52;102039.22;4964707;28;20034;-65
2023/05/30 06:35:53;;;;;;;15.63;3.67;;;;;;;12.62;62.74;102046.13;4996755;28;20744;-65
2023/05/30 06:38:20;;;;;;;16.15;3.50;;;;;;;12.80;62.86;102048.78;4970615;28;20043;-66
2023/05/30 06:40:45;;;;;;;14.35;3.38;;;;;;;12.94;62.22;102041.88;4964007;28;20061;-65
2023/05/30 06:43:11;;;;;;;14.02;4.60;;;;;;;13.02;62.06;102035.91;4967788;28;20512;-66
2023/05/30 06:45:36;;;;;;;13.85;4.30;;;;;;;13.11;61.83;102033.31;4971765;28;20096;-65
2023/05/30 06:48:01;;;;;;;18.10;4.07;;;;;;;13.23;62.29;102041.13;4966245;28;20130;-66
2023/05/30 06:50:27;;;;;;;11.25;3.28;;;;;;;13.29;61.88;102039.41;4965511;28;20049;-65
2023/05/30 06:52:53;;;;;;;12.10;4.43;;;;;;;13.33;61.27;102025.53;4965685;28;20154;-65
2023/05/30 06:55:18;;;;;;;18.02;3.95;;;;;;;13.32;60.76;102020.34;4964729;28;20039;-65
2023/05/30 06:57:44;;;;;;;16.67;3.60;;;;;;;13.39;60.45;102009.09;4966959;28;20042;-65
2023/05/30 07:00:10;;;;;;;20.42;4.55;;;;;;;13.39;60.46;102009.94;4971813;28;20038;-66
2023/05/30 07:02:36;;;;;;;17.77;3.95;;;;;;;13.52;60.71;102018.63;4970287;28;20105;-65
2023/05/30 07:05:01;;;;;;;13.52;4.53;;;;;;;13.45;60.63;102014.28;4969967;28;20519;-65
2023/05/30 07:07:27;;;;;;;15.50;3.83;;;;;;;13.43;61.19;102022.09;4966166;28;20043;-65
2023/05/30 07:09:52;;;;;;;12.95;4.03;;;;;;;13.51;60.36;102009.94;4961351;28;20507;-66
2023/05/30 07:12:18;;;;;;;16.85;3.97;;;;;;;13.50;61.18;102021.19;4966305;28;20026;-66
2023/05/30 07:14:43;;;;;;;14.00;4.47;;;;;;;13.57;60.62;102017.75;4965905;28;20035;-66
2023/05/30 07:17:08;;;;;;;18.05;4.95;;;;;;;13.65;60.00;102004.75;4970948;28;20047;-66
2023/05/30 07:19:34;;;;;;;14.00;4.88;;;;;;;13.74;60.02;102003.88;4964434;28;20038;-66
2023/05/30 07:21:59;;;;;;;14.07;4.47;;;;;;;13.79;60.06;102003.00;4962200;28;20019;-66
2023/05/30 07:24:24;;;;;;;16.92;4.55;;;;;;;13.91;60.03;102008.19;4963005;28;20101;-66
2023/05/30 07:26:50;;;;;;;16.25;3.97;;;;;;;13.96;60.13;102010.75;4964034;28;20145;-66
2023/05/30 07:29:15;;;;;;;15.95;3.75;;;;;;;14.07;58.70;101985.59;4977786;28;20137;-66
2023/05/30 07:31:41;;;;;;;18.60;4.68;;;;;;;13.89;59.18;101999.50;4973991;28;20031;-66
2023/05/30 07:34:06;;;;;;;14.10;4.10;;;;;;;13.93;59.23;102005.56;4965785;28;20039;-66
2023/05/30 07:36:32;;;;;;;18.17;4.65;;;;;;;14.06;58.61;101994.28;4962862;28;20042;-66
2023/05/30 07:38:58;;;;;;;18.63;4.85;;;;;;;14.19;58.69;101997.69;4966448;28;20049;-67
2023/05/30 07:41:23;;;;;;;14.05;5.25;;;;;;;14.28;58.25;101990.72;4967570;28;20034;-67
2023/05/30 07:43:49;;;;;;;14.00;4.85;;;;;;;14.34;57.79;101982.88;4967909;28;20116;-67
2023/05/30 07:46:14;;;;;;;13.40;5.03;;;;;;;14.35;58.19;101994.16;4962338;28;20766;-66
2023/05/30 07:48:40;;;;;;;18.20;3.85;;;;;;;14.43;58.46;101989.81;4962832;28;20038;-66
2023/05/30 07:51:06;;;;;;;16.30;4.70;;;;;;;14.53;57.80;101979.38;4960546;28;20150;-66
2023/05/30 07:53:32;;;;;;;18.00;4.30;;;;;;;14.73;57.83;101979.25;4962701;28;20042;-67
2023/05/30 07:55:58;;;;;;;18.50;4.38;;;;;;;14.73;57.34;101966.22;4961173;28;20042;-66
2023/05/30 07:58:24;;;;;;;19.60;5.05;;;;;;;14.73;56.64;101957.56;4975882;28;20033;-67
2023/05/30 08:00:50;;;;;;;12.43;4.18;;;;;;;14.75;57.39;101974.03;4984827;28;20072;-66
2023/05/30 08:03:15;;;;;;;12.65;4.05;;;;;;;14.77;57.04;101967.94;4962030;28;20046;-66
2023/05/30 08:05:40;;;;;;;13.30;4.72;;;;;;;14.91;56.83;101955.69;4961680;28;20043;-65
2023/05/30 08:08:07;;;;;;;14.68;4.60;;;;;;;15.03;56.43;101949.53;4966018;28;20046;-66
2023/05/30 08:10:33;;;;;;;11.82;5.10;;;;;;;15.20;56.41;101947.66;4964233;28;20048;-67
2023/05/30 08:12:58;;;;;;;23.33;5.03;;;;;;;15.21;55.72;101946.78;4961830;28;20074;-66
2023/05/30 08:15:23;;;;;;;12.65;4.28;;;;;;;15.33;55.93;101949.28;4965277;28;20051;-66
2023/05/30 08:17:49;;;;;;;17.80;5.28;;;;;;;15.44;55.04;101936.13;4962391;28;20125;-66
2023/05/30 08:20:16;;;;;;;16.10;6.00;;;;;;;15.52;55.79;101937.78;4966891;28;20182;-67
2023/05/30 08:22:41;;;;;;;11.98;5.18;;;;;;;15.60;55.37;101925.56;4962280;28;20042;-66
2023/05/30 08:25:07;;;;;;;11.32;4.80;;;;;;;15.69;54.73;101925.50;4962237;28;20035;-66
2023/05/30 08:27:34;;;;;;;14.77;4.60;;;;;;;15.76;54.95;101928.91;4969095;28;20038;-66
2023/05/30 08:30:00;;;;;;;16.67;4.85;;;;;;;15.79;54.68;101921.03;4965187;28;20034;-66
2023/05/30 08:32:27;;;;;;;16.35;5.05;;;;;;;15.80;53.90;101908.84;4970995;28;20619;-66
2023/05/30 08:34:52;;;;;;;11.73;4.60;;;;;;;15.83;54.50;101914.03;4961872;28;20043;-62
2023/05/30 08:37:19;;;;;;;15.52;4.47;;;;;;;15.90;54.12;101906.13;4969131;28;20097;-62
2023/05/30 08:39:44;;;;;;;14.38;4.85;;;;;;;15.86;53.83;101909.66;4961724;28;20035;-62
2023/05/30 08:42:12;;;;;;;16.58;5.00;;;;;;;16.06;53.96;101912.00;4969614;28;20611;-62
2023/05/30 08:44:38;;;;;;;11.80;5.65;;;;;;;16.07;53.72;101905.91;4965037;28;20058;-62
2023/05/30 08:47:07;;;;;;;13.77;5.25;;;;;;;16.09;53.40;101896.31;4966872;28;20032;-62
2023/05/30 08:49:36;;;;;;;17.55;5.80;;;;;;;15.98;53.64;101896.47;4961393;28;20042;-62
2023/05/30 08:52:02;;;;;;;14.20;4.63;;;;;;;16.11;53.59;101895.44;4959755;28;20042;-62
2023/05/30 08:54:40;;;;;;;13.55;5.43;;;;;;;16.33;53.99;101909.03;4962584;28;20045;-63
2023/05/30 08:57:14;;;;;;;15.30;5.43;;;;;;;16.28;52.54;101892.59;4963047;28;20050;-62
2023/05/30 08:59:40;;;;;;;11.52;4.85;;;;;;;16.38;52.28;101888.97;4966848;28;20133;-75
2023/05/30 09:02:07;;;;;;;18.42;5.63;;;;;;;16.46;52.17;101876.69;4960727;28;20413;-74
2023/05/30 09:04:33;;;;;;;15.82;5.38;;;;;;;16.41;52.23;101882.84;4965752;28;20058;-75
2023/05/30 09:07:01;;;;;;;18.05;5.35;;;;;;;16.53;52.48;101880.94;4969002;28;20031;-74
2023/05/30 09:09:29;;;;;;;20.85;6.50;;;;;;;16.55;52.64;101875.66;4960237;28;20027;-74
2023/05/30 09:11:54;;;;;;;16.65;4.72;;;;;;;16.63;52.21;101881.63;4958664;28;20085;-74
2023/05/30 09:14:20;;;;;;;17.58;4.78;;;;;;;16.76;52.43;101889.25;4969905;28;20031;-74
2023/05/30 09:16:46;;;;;;;17.90;4.68;;;;;;;16.97;51.22;101861.97;4963486;28;20049;-74
2023/05/30 09:19:12;;;;;;;11.48;5.07;;;;;;;17.01;51.82;101881.91;4961978;28;20034;-74
2023/05/30 09:21:39;;;;;;;13.15;5.20;;;;;;;17.14;51.43;101870.34;4961798;28;20046;-75
2023/05/30 09:24:05;;;;;;;13.43;5.00;;;;;;;17.07;51.54;101867.88;5000426;28;20050;-74
2023/05/30 09:26:32;;;;;;;17.55;5.50;;;;;;;17.05;52.42;101880.09;4965393;28;20061;-75
2023/05/30 09:29:11;;;;;;;16.52;4.85;;;;;;;17.24;51.08;101861.47;4967041;28;20043;-73
2023/05/30 09:31:37;;;;;;;16.23;5.10;;;;;;;17.19;50.86;101860.69;4963390;28;20122;-72
2023/05/30 09:34:03;;;;;;;11.98;5.47;;;;;;;17.46;51.04;101867.16;4967279;28;20029;-73
2023/05/30 09:36:29;;;;;;;17.27;5.25;;;;;;;17.31;50.12;101849.13;4962441;28;20034;-74
2023/05/30 09:38:59;;;;;;;12.52;5.20;;;;;;;17.40;50.59;101859.41;4959152;28;20487;-73
2023/05/30 09:41:26;;;;;;;15.43;5.03;;;;;;;17.67;50.98;101865.88;4960789;28;20172;-74
2023/05/30 09:43:55;;;;;;;17.25;4.75;;;;;;;17.70;50.34;101853.59;4963812;28;20047;-74
2023/05/30 09:46:29;;;;;;;17.98;4.30;;;;;;;17.66;49.83;101848.47;4969318;28;20078;-73
2023/05/30 09:48:55;;;;;;;13.23;4.43;;;;;;;17.97;50.29;101862.66;4963033;28;20066;-74
2023/05/30 09:51:22;;;;;;;15.45;4.90;;;;;;;18.03;50.03;101851.19;4961977;28;24921;-74
2023/05/30 09:53:55;;;;;;;14.50;4.65;;;;;;;18.16;50.21;101840.44;4967321;28;20055;-74
2023/05/30 09:56:28;;;;;;;15.90;4.30;;;;;;;18.13;49.79;101844.88;4969759;28;20088;-74
2023/05/30 09:58:57;;;;;;;14.27;4.55;;;;;;;18.38;49.08;101836.41;4968529;28;20030;-75
2023/05/30 10:01:23;;;;;;;12.57;4.60;;;;;;;18.39;50.44;101850.38;4971589;28;20042;-74
2023/05/30 10:03:48;;;;;;;13.80;5.18;;;;;;;18.41;49.47;101831.09;4968247;28;20035;-68
2023/05/30 10:06:15;;;;;;;12.95;4.55;;;;;;;18.45;49.39;101832.78;4968199;28;20042;-74
2023/05/30 10:08:44;;;;;;;14.95;5.07;;;;;;;18.68;48.95;101819.09;4962161;28;20500;-74
2023/05/30 10:11:10;;;;;;;18.35;4.75;;;;;;;18.84;48.68;101816.97;4962377;28;20120;-74
2023/05/30 10:13:36;;;;;;;15.82;5.18;;;;;;;18.89;48.10;101815.13;4970129;28;20039;-74
2023/05/30 10:16:04;;;;;;;17.63;5.55;;;;;;;19.00;48.46;101813.06;4968714;28;20034;-73
2023/05/30 10:18:32;;;;;;;15.13;4.80;;;;;;;18.99;48.71;101811.38;4971888;28;20125;-73
2023/05/30 10:21:00;;;;;;;20.77;5.65;;;;;;;18.90;48.74;101817.72;4965373;28;20035;-74
2023/05/30 10:23:26;;;;;;;12.73;4.93;;;;;;;18.97;48.39;101807.91;4962714;28;20150;-74
2023/05/30 10:25:56;;;;;;;12.25;4.43;;;;;;;19.22;49.82;101823.84;4967492;28;20145;-75
2023/05/30 10:28:28;;;;;;;11.65;4.50;;;;;;;19.26;48.14;101805.38;4972039;28;20045;-75
2023/05/30 10:30:56;;;;;;;15.05;4.60;;;;;;;19.47;48.62;101811.78;4986556;28;20125;-70
2023/05/30 10:33:21;;;;;;;13.98;4.95;;;;;;;19.62;47.04;101795.63;4972323;28;20054;-70
2023/05/30 10:35:47;;;;;;;11.57;4.03;;;;;;;19.69;47.00;101785.78;4968523;28;20038;-69
2023/05/30 10:38:12;;;;;;;14.40;4.80;;;;;;;19.67;46.57;101783.22;4965548;28;20105;-70
2023/05/30 10:40:59;;;;;;;13.27;4.65;;;;;;;19.65;47.14;101795.50;4967802;28;20047;-74
2023/05/30 10:43:56;;;;;;;19.05;5.07;;;;;;;19.73;47.26;101790.91;4972551;28;20045;-74
2023/05/30 10:46:31;;;;;;;12.25;4.40;;;;;;;19.93;46.62;101788.56;4965755;28;20035;-75
2023/05/30 10:49:03;;;;;;;15.50;4.93;;;;;;;19.95;46.33;101771.00;4964161;28;20465;-74
2023/05/30 10:51:28;;;;;;;12.15;3.78;;;;;;;19.87;46.27;101773.00;4971017;28;20042;-73
2023/05/30 10:53:57;;;;;;;11.00;3.88;;;;;;;20.16;46.26;101775.56;4965101;28;20133;-73
2023/05/30 10:56:26;;;;;;;11.45;3.90;;;;;;;20.18;46.29;101771.13;4967492;28;20038;-75
2023/05/30 10:58:55;;;;;;;17.90;5.07;;;;;;;20.35;46.56;101777.63;4966816;28;20393;-74
2023/05/30 11:01:33;;;;;;;9.55;4.03;;;;;;;20.62;45.44;101756.56;4968669;28;20034;-68
2023/05/30 11:04:11;;;;;;;14.82;4.55;;;;;;;20.62;44.79;101745.19;4966053;28;20041;-73
2023/05/30 11:06:46;;;;;;;14.13;4.75;;;;;;;20.57;45.02;101750.56;4965368;28;20047;-74
2023/05/30 11:09:17;;;;;;;14.85;4.95;;;;;;;20.65;44.54;101739.81;4963860;28;20901;-75
2023/05/30 11:12:01;;;;;;;11.55;4.38;;;;;;;20.57;45.41;101749.75;4960210;28;20663;-74
2023/05/30 11:14:29;;;;;;;13.73;4.85;;;;;;;20.64;44.51;101730.22;4962793;28;20070;-75
2023/05/30 11:16:54;;;;;;;10.13;3.72;;;;;;;20.88;44.64;101731.16;4968875;28;20038;-75
2023/05/30 11:19:24;;;;;;;18.00;4.70;;;;;;;20.98;43.01;101716.78;4963778;28;20034;-74